Jobs Corners, Pennsylvania
Current Conditions -  °F | °C
As of 6:53 PM on Thursday 27 Nov 2014 (Local Time) from KELM Reporting Station
Overcast Overcast  
Wind Chill: 27°   Ceiling: 7500
Heat Index: 27°   Visibility: 10mi
Dew Point: 22°   Wind: 0mph
Humidity: 81%   Direction: NA
Pressure: 30.05"   Gusts: NA
Location:  41.9565°N, 76.9857°W
Report Text: KELM 272353Z 00000KT 10SM OVC075 M03/M06 A3005 RMK AO2 SLP188 T10281056 10011 21050 51010
Loading
Personal Weather Stations






























Interactive Weather Map New forecast layout! Learn more

10-Day Weather Forecast

Advertisements
Track Severe Weather on mobile